sensor_id;sensor_type;location;lat;lon;timestamp;pressure;altitude;pressure_sealevel;temperature;humidity
16094;BME280;8151;47.824;12.092;2023-07-29T00:00:06;96049.31;;;19.25;79.20
16094;BME280;8151;47.824;12.092;2023-07-29T00:02:34;96045.78;;;19.25;79.37
16094;BME280;8151;47.824;12.092;2023-07-29T00:05:03;96044.97;;;19.24;79.34
16094;BME280;8151;47.824;12.092;2023-07-29T00:07:31;96043.09;;;19.25;79.37
16094;BME280;8151;47.824;12.092;2023-07-29T00:10:00;96048.47;;;19.25;79.22
16094;BME280;8151;47.824;12.092;2023-07-29T00:12:29;96042.66;;;19.28;78.96
16094;BME280;8151;47.824;12.092;2023-07-29T00:14:57;96043.47;;;19.28;79.17
16094;BME280;8151;47.824;12.092;2023-07-29T00:17:27;96032.50;;;19.30;79.23
16094;BME280;8151;47.824;12.092;2023-07-29T00:19:55;96032.28;;;19.32;79.13
16094;BME280;8151;47.824;12.092;2023-07-29T00:22:24;96034.16;;;19.31;79.18
16094;BME280;8151;47.824;12.092;2023-07-29T00:24:52;96026.09;;;19.31;79.11
16094;BME280;8151;47.824;12.092;2023-07-29T00:27:22;96029.38;;;19.33;79.22
16094;BME280;8151;47.824;12.092;2023-07-29T00:29:50;96023.16;;;19.33;79.22
16094;BME280;8151;47.824;12.092;2023-07-29T00:32:18;96018.88;;;19.32;79.28
16094;BME280;8151;47.824;12.092;2023-07-29T00:34:48;96021.78;;;19.30;79.37
16094;BME280;8151;47.824;12.092;2023-07-29T00:37:17;96017.69;;;19.27;79.60
16094;BME280;8151;47.824;12.092;2023-07-29T00:39:45;96017.69;;;19.27;79.43
16094;BME280;8151;47.824;12.092;2023-07-29T00:42:13;96023.06;;;19.27;79.25
16094;BME280;8151;47.824;12.092;2023-07-29T00:44:42;96017.94;;;19.26;79.24
16094;BME280;8151;47.824;12.092;2023-07-29T00:47:11;96017.94;;;19.26;79.46
16094;BME280;8151;47.824;12.092;2023-07-29T00:49:41;96013.38;;;19.26;79.48
16094;BME280;8151;47.824;12.092;2023-07-29T00:52:12;96012.56;;;19.26;79.38
16094;BME280;8151;47.824;12.092;2023-07-29T00:54:40;96021.41;;;19.26;79.39
16094;BME280;8151;47.824;12.092;2023-07-29T00:57:11;96019.56;;;19.27;79.16
16094;BME280;8151;47.824;12.092;2023-07-29T00:59:48;96010.09;;;19.24;79.28
16094;BME280;8151;47.824;12.092;2023-07-29T01:02:17;96013.84;;;19.23;79.41
16094;BME280;8151;47.824;12.092;2023-07-29T01:04:51;96008.50;;;19.23;79.41
16094;BME280;8151;47.824;12.092;2023-07-29T01:07:25;96002.53;;;19.21;79.31
16094;BME280;8151;47.824;12.092;2023-07-29T01:10:00;96001.47;;;19.22;79.38
16094;BME280;8151;47.824;12.092;2023-07-29T01:12:36;96001.47;;;19.22;79.25
16094;BME280;8151;47.824;12.092;2023-07-29T01:15:11;96000.66;;;19.22;79.31
16094;BME280;8151;47.824;12.092;2023-07-29T01:17:48;96000.66;;;19.22;79.14
16094;BME280;8151;47.824;12.092;2023-07-29T01:20:19;96001.97;;;19.19;79.19
16094;BME280;8151;47.824;12.092;2023-07-29T01:22:49;95997.03;;;19.16;79.35
16094;BME280;8151;47.824;12.092;2023-07-29T01:25:19;96003.44;;;19.15;79.35
16094;BME280;8151;47.824;12.092;2023-07-29T01:27:50;95999.13;;;19.14;79.51
16094;BME280;8151;47.824;12.092;2023-07-29T01:30:20;95991.31;;;19.13;79.44
16094;BME280;8151;47.824;12.092;2023-07-29T01:33:04;95991.81;;;19.10;79.42
16094;BME280;8151;47.824;12.092;2023-07-29T01:35:39;95985.00;;;19.07;79.55
16094;BME280;8151;47.824;12.092;2023-07-29T01:38:14;95980.94;;;19.04;79.59
16094;BME280;8151;47.824;12.092;2023-07-29T01:40:47;95986.06;;;19.06;79.62
16094;BME280;8151;47.824;12.092;2023-07-29T01:43:16;95986.06;;;19.06;79.78
16094;BME280;8151;47.824;12.092;2023-07-29T01:45:46;95977.19;;;19.05;79.71
16094;BME280;8151;47.824;12.092;2023-07-29T01:48:14;95985.50;;;19.04;79.79
16094;BME280;8151;47.824;12.092;2023-07-29T01:50:43;95971.25;;;19.03;79.92
16094;BME280;8151;47.824;12.092;2023-07-29T01:53:11;95987.59;;;19.02;79.98
16094;BME280;8151;47.824;12.092;2023-07-29T01:55:41;95967.63;;;18.98;80.08
16094;BME280;8151;47.824;12.092;2023-07-29T01:58:13;95973.47;;;18.95;80.20
16094;BME280;8151;47.824;12.092;2023-07-29T02:00:41;95989.19;;;18.91;80.65
16094;BME280;8151;47.824;12.092;2023-07-29T02:03:19;95973.09;;;18.91;80.49
16094;BME280;8151;47.824;12.092;2023-07-29T02:05:48;95957.25;;;18.89;80.63
16094;BME280;8151;47.824;12.092;2023-07-29T02:08:16;95962.25;;;18.86;80.72
16094;BME280;8151;47.824;12.092;2023-07-29T02:10:45;95959.56;;;18.86;80.87
16094;BME280;8151;47.824;12.092;2023-07-29T02:13:15;95969.47;;;18.85;81.04
16094;BME280;8151;47.824;12.092;2023-07-29T02:15:43;95978.59;;;18.84;81.11
16094;BME280;8151;47.824;12.092;2023-07-29T02:18:18;95971.41;;;18.78;81.25
16094;BME280;8151;47.824;12.092;2023-07-29T02:20:46;95965.22;;;18.78;81.42
16094;BME280;8151;47.824;12.092;2023-07-29T02:23:16;95960.09;;;18.76;81.54
16094;BME280;8151;47.824;12.092;2023-07-29T02:25:45;95970.00;;;18.76;81.54
16094;BME280;8151;47.824;12.092;2023-07-29T02:28:15;95968.41;;;18.75;81.61
16094;BME280;8151;47.824;12.092;2023-07-29T02:30:43;95970.81;;;18.76;81.54
16094;BME280;8151;47.824;12.092;2023-07-29T02:33:12;95966.28;;;18.77;81.62
16094;BME280;8151;47.824;12.092;2023-07-29T02:35:40;95970.00;;;18.76;81.74
16094;BME280;8151;47.824;12.092;2023-07-29T02:38:09;95965.94;;;18.73;81.87
16094;BME280;8151;47.824;12.092;2023-07-29T02:40:37;95960.78;;;18.72;81.88
16094;BME280;8151;47.824;12.092;2023-07-29T02:43:10;95961.03;;;18.70;81.94
16094;BME280;8151;47.824;12.092;2023-07-29T02:45:41;95963.91;;;18.68;82.06
16094;BME280;8151;47.824;12.092;2023-07-29T02:48:09;95971.38;;;18.66;82.08
16094;BME280;8151;47.824;12.092;2023-07-29T02:50:37;95969.97;;;18.64;82.25
16094;BME280;8151;47.824;12.092;2023-07-29T02:53:06;95974.97;;;18.60;82.27
16094;BME280;8151;47.824;12.092;2023-07-29T02:55:34;95971.13;;;18.56;82.48
16094;BME280;8151;47.824;12.092;2023-07-29T02:58:08;95982.88;;;18.55;82.46
16094;BME280;8151;47.824;12.092;2023-07-29T03:00:37;95979.59;;;18.53;82.50
16094;BME280;8151;47.824;12.092;2023-07-29T03:03:09;95965.03;;;18.49;82.59
16094;BME280;8151;47.824;12.092;2023-07-29T03:05:37;95979.25;;;18.49;82.70
16094;BME280;8151;47.824;12.092;2023-07-29T03:08:06;95991.22;;;18.47;82.70
16094;BME280;8151;47.824;12.092;2023-07-29T03:10:35;95993.53;;;18.43;82.80
16094;BME280;8151;47.824;12.092;2023-07-29T03:13:03;96000.63;;;18.38;82.99
16094;BME280;8151;47.824;12.092;2023-07-29T03:15:31;95992.25;;;18.34;83.21
16094;BME280;8151;47.824;12.092;2023-07-29T03:18:01;95987.69;;;18.35;83.24
16094;BME280;8151;47.824;12.092;2023-07-29T03:20:32;95988.72;;;18.34;83.28
16094;BME280;8151;47.824;12.092;2023-07-29T03:23:00;95989.56;;;18.34;83.21
16094;BME280;8151;47.824;12.092;2023-07-29T03:25:31;95991.41;;;18.34;83.16
16094;BME280;8151;47.824;12.092;2023-07-29T03:27:59;95992.25;;;18.34;83.20
16094;BME280;8151;47.824;12.092;2023-07-29T03:30:28;96003.78;;;18.35;83.24
16094;BME280;8151;47.824;12.092;2023-07-29T03:32:56;96007.47;;;18.34;83.31
16094;BME280;8151;47.824;12.092;2023-07-29T03:35:25;96001.09;;;18.35;83.35
16094;BME280;8151;47.824;12.092;2023-07-29T03:37:54;96004.00;;;18.33;83.32
16094;BME280;8151;47.824;12.092;2023-07-29T03:40:23;96007.72;;;18.32;83.39
16094;BME280;8151;47.824;12.092;2023-07-29T03:42:51;96019.47;;;18.31;83.49
16094;BME280;8151;47.824;12.092;2023-07-29T03:45:20;96014.34;;;18.29;83.63
16094;BME280;8151;47.824;12.092;2023-07-29T03:47:58;96008.16;;;18.29;83.61
16094;BME280;8151;47.824;12.092;2023-07-29T03:50:28;96001.53;;;18.32;83.71
16094;BME280;8151;47.824;12.092;2023-07-29T03:52:58;95996.31;;;18.37;83.56
16094;BME280;8151;47.824;12.092;2023-07-29T03:55:26;95999.59;;;18.39;83.58
16094;BME280;8151;47.824;12.092;2023-07-29T03:57:56;95999.16;;;18.42;83.44
16094;BME280;8151;47.824;12.092;2023-07-29T04:00:25;95999.28;;;18.47;83.42
16094;BME280;8151;47.824;12.092;2023-07-29T04:02:54;95989.72;;;18.51;83.32
16094;BME280;8151;47.824;12.092;2023-07-29T04:05:22;95993.00;;;18.53;83.30
16094;BME280;8151;47.824;12.092;2023-07-29T04:07:51;95986.59;;;18.54;83.33
16094;BME280;8151;47.824;12.092;2023-07-29T04:10:22;95983.94;;;18.54;83.43
16094;BME280;8151;47.824;12.092;2023-07-29T04:12:51;95985.53;;;18.55;83.32
16094;BME280;8151;47.824;12.092;2023-07-29T04:15:19;95976.47;;;18.56;83.40
16094;BME280;8151;47.824;12.092;2023-07-29T04:17:48;95983.00;;;18.60;83.13
16094;BME280;8151;47.824;12.092;2023-07-29T04:20:16;95972.88;;;18.62;83.10
16094;BME280;8151;47.824;12.092;2023-07-29T04:22:45;95977.22;;;18.63;82.87
16094;BME280;8151;47.824;12.092;2023-07-29T04:25:13;95978.81;;;18.64;82.80
16094;BME280;8151;47.824;12.092;2023-07-29T04:27:43;95991.19;;;18.65;82.91
16094;BME280;8151;47.824;12.092;2023-07-29T04:30:11;95988.28;;;18.67;82.71
16094;BME280;8151;47.824;12.092;2023-07-29T04:32:50;95976.28;;;18.69;82.65
16094;BME280;8151;47.824;12.092;2023-07-29T04:35:18;95977.91;;;18.70;82.48
16094;BME280;8151;47.824;12.092;2023-07-29T04:37:48;95983.63;;;18.74;82.40
16094;BME280;8151;47.824;12.092;2023-07-29T04:40:16;95975.16;;;18.77;82.14
16094;BME280;8151;47.824;12.092;2023-07-29T04:42:46;95977.16;;;18.82;82.16
16094;BME280;8151;47.824;12.092;2023-07-29T04:45:15;95976.72;;;18.85;81.87
16094;BME280;8151;47.824;12.092;2023-07-29T04:47:44;95964.94;;;18.86;81.93
16094;BME280;8151;47.824;12.092;2023-07-29T04:50:12;95952.09;;;18.88;81.92
16094;BME280;8151;47.824;12.092;2023-07-29T04:52:42;95955.63;;;18.88;82.00
16094;BME280;8151;47.824;12.092;2023-07-29T04:55:10;95947.59;;;18.88;81.86
16094;BME280;8151;47.824;12.092;2023-07-29T04:57:39;95948.16;;;18.91;81.81
16094;BME280;8151;47.824;12.092;2023-07-29T05:00:10;95930.44;;;18.89;81.65
16094;BME280;8151;47.824;12.092;2023-07-29T05:02:42;95926.16;;;18.88;81.64
16094;BME280;8151;47.824;12.092;2023-07-29T05:05:10;95935.44;;;18.86;81.77
16094;BME280;8151;47.824;12.092;2023-07-29T05:07:39;95952.59;;;18.85;81.95
16094;BME280;8151;47.824;12.092;2023-07-29T05:10:08;95931.94;;;18.85;81.75
16094;BME280;8151;47.824;12.092;2023-07-29T05:12:36;95937.66;;;18.89;82.01
16094;BME280;8151;47.824;12.092;2023-07-29T05:15:06;95928.56;;;18.90;81.93
16094;BME280;8151;47.824;12.092;2023-07-29T05:17:36;95940.94;;;18.91;81.79
16094;BME280;8151;47.824;12.092;2023-07-29T05:20:06;95935.22;;;18.87;81.99
16094;BME280;8151;47.824;12.092;2023-07-29T05:22:35;95931.50;;;18.88;82.20
16094;BME280;8151;47.824;12.092;2023-07-29T05:25:04;95928.56;;;18.90;82.16
16094;BME280;8151;47.824;12.092;2023-07-29T05:27:33;95936.38;;;18.92;82.09
16094;BME280;8151;47.824;12.092;2023-07-29T05:30:02;95920.88;;;18.94;82.00
16094;BME280;8151;47.824;12.092;2023-07-29T05:32:31;95914.84;;;18.98;82.01
16094;BME280;8151;47.824;12.092;2023-07-29T05:35:01;95923.81;;;19.04;81.80
16094;BME280;8151;47.824;12.092;2023-07-29T05:37:30;95922.31;;;19.08;81.70
16094;BME280;8151;47.824;12.092;2023-07-29T05:39:58;95916.47;;;19.11;81.80
16094;BME280;8151;47.824;12.092;2023-07-29T05:42:26;95927.78;;;19.13;81.84
16094;BME280;8151;47.824;12.092;2023-07-29T05:44:55;95924.50;;;19.11;81.72
16094;BME280;8151;47.824;12.092;2023-07-29T05:47:23;95909.00;;;19.13;81.79
16094;BME280;8151;47.824;12.092;2023-07-29T05:49:52;95922.75;;;19.17;81.72
16094;BME280;8151;47.824;12.092;2023-07-29T05:52:23;95904.56;;;19.19;81.60
16094;BME280;8151;47.824;12.092;2023-07-29T05:54:51;95905.16;;;19.21;81.47
16094;BME280;8151;47.824;12.092;2023-07-29T05:57:19;95920.19;;;19.22;81.24
16094;BME280;8151;47.824;12.092;2023-07-29T05:59:48;95904.91;;;19.22;81.14
16094;BME280;8151;47.824;12.092;2023-07-29T06:02:16;95923.47;;;19.24;81.01
16094;BME280;8151;47.824;12.092;2023-07-29T06:04:45;95916.47;;;19.23;80.95
16094;BME280;8151;47.824;12.092;2023-07-29T06:07:13;95910.63;;;19.26;80.96
16094;BME280;8151;47.824;12.092;2023-07-29T06:09:43;95901.66;;;19.32;80.54
16094;BME280;8151;47.824;12.092;2023-07-29T06:12:12;95914.59;;;19.35;80.23
16094;BME280;8151;47.824;12.092;2023-07-29T06:14:40;95919.03;;;19.41;80.22
16094;BME280;8151;47.824;12.092;2023-07-29T06:17:08;95931.72;;;19.46;80.10
16094;BME280;8151;47.824;12.092;2023-07-29T06:19:38;95927.28;;;19.52;79.96
16094;BME280;8151;47.824;12.092;2023-07-29T06:22:07;95923.91;;;19.56;79.86
16094;BME280;8151;47.824;12.092;2023-07-29T06:24:35;95928.56;;;19.61;79.55
16094;BME280;8151;47.824;12.092;2023-07-29T06:27:05;95933.69;;;19.62;79.73
16094;BME280;8151;47.824;12.092;2023-07-29T06:29:34;95933.47;;;19.64;79.49
16094;BME280;8151;47.824;12.092;2023-07-29T06:32:03;95931.09;;;19.67;79.60
16094;BME280;8151;47.824;12.092;2023-07-29T06:34:31;95952.56;;;19.67;79.53
16094;BME280;8151;47.824;12.092;2023-07-29T06:37:00;95988.75;;;19.65;79.50
16094;BME280;8151;47.824;12.092;2023-07-29T06:39:28;96046.06;;;19.59;79.74
16094;BME280;8151;47.824;12.092;2023-07-29T06:41:57;96030.31;;;19.51;80.38
16094;BME280;8151;47.824;12.092;2023-07-29T06:44:26;96028.56;;;19.44;80.81
16094;BME280;8151;47.824;12.092;2023-07-29T06:46:55;96010.69;;;19.38;81.51
16094;BME280;8151;47.824;12.092;2023-07-29T06:49:24;95976.06;;;19.37;81.97
16094;BME280;8151;47.824;12.092;2023-07-29T06:51:52;95976.66;;;19.39;82.29
16094;BME280;8151;47.824;12.092;2023-07-29T06:54:24;95971.03;;;19.40;82.61
16094;BME280;8151;47.824;12.092;2023-07-29T06:56:52;95965.44;;;19.42;82.82
16094;BME280;8151;47.824;12.092;2023-07-29T06:59:21;95980.00;;;19.46;82.98
16094;BME280;8151;47.824;12.092;2023-07-29T07:01:53;95982.81;;;19.51;82.96
16094;BME280;8151;47.824;12.092;2023-07-29T07:04:21;95973.25;;;19.55;83.29
16094;BME280;8151;47.824;12.092;2023-07-29T07:06:50;95984.91;;;19.61;83.53
16094;BME280;8151;47.824;12.092;2023-07-29T07:09:19;96001.59;;;19.63;83.76
16094;BME280;8151;47.824;12.092;2023-07-29T07:11:48;96013.63;;;19.60;83.84
16094;BME280;8151;47.824;12.092;2023-07-29T07:14:16;95996.38;;;19.56;83.97
16094;BME280;8151;47.824;12.092;2023-07-29T07:16:45;96002.78;;;19.55;84.00
16094;BME280;8151;47.824;12.092;2023-07-29T07:19:15;96008.84;;;19.51;84.11
16094;BME280;8151;47.824;12.092;2023-07-29T07:21:43;96021.91;;;19.47;84.10
16094;BME280;8151;47.824;12.092;2023-07-29T07:24:12;96034.63;;;19.40;84.33
16094;BME280;8151;47.824;12.092;2023-07-29T07:26:40;96038.81;;;19.36;84.80
16094;BME280;8151;47.824;12.092;2023-07-29T07:29:08;96045.47;;;19.33;84.94
16094;BME280;8151;47.824;12.092;2023-07-29T07:31:37;96043.00;;;19.32;85.20
16094;BME280;8151;47.824;12.092;2023-07-29T07:34:05;96027.63;;;19.27;85.16
16094;BME280;8151;47.824;12.092;2023-07-29T07:36:35;96016.53;;;19.23;85.54
16094;BME280;8151;47.824;12.092;2023-07-29T07:39:04;95992.41;;;19.23;85.62
16094;BME280;8151;47.824;12.092;2023-07-29T07:41:33;95987.38;;;19.27;85.49
16094;BME280;8151;47.824;12.092;2023-07-29T07:44:01;95990.97;;;19.33;85.04
16094;BME280;8151;47.824;12.092;2023-07-29T07:46:30;96005.81;;;19.35;85.21
16094;BME280;8151;47.824;12.092;2023-07-29T07:48:59;96008.28;;;19.37;85.49
16094;BME280;8151;47.824;12.092;2023-07-29T07:51:27;95999.16;;;19.38;85.32
16094;BME280;8151;47.824;12.092;2023-07-29T07:53:57;95997.41;;;19.43;85.38
16094;BME280;8151;47.824;12.092;2023-07-29T07:56:26;95990.75;;;19.46;85.43
16094;BME280;8151;47.824;12.092;2023-07-29T07:58:54;95989.50;;;19.48;85.28
16094;BME280;8151;47.824;12.092;2023-07-29T08:01:22;95989.00;;;19.52;85.31
16094;BME280;8151;47.824;12.092;2023-07-29T08:03:51;95992.25;;;19.54;85.27
16094;BME280;8151;47.824;12.092;2023-07-29T08:06:19;95991.59;;;19.58;85.15
16094;BME280;8151;47.824;12.092;2023-07-29T08:08:48;95990.41;;;19.66;85.10
16094;BME280;8151;47.824;12.092;2023-07-29T08:11:18;95985.50;;;19.75;84.68
16094;BME280;8151;47.824;12.092;2023-07-29T08:13:46;95992.97;;;19.84;84.64
16094;BME280;8151;47.824;12.092;2023-07-29T08:16:15;95989.69;;;19.94;84.78
16094;BME280;8151;47.824;12.092;2023-07-29T08:18:43;95997.38;;;20.02;84.82
16094;BME280;8151;47.824;12.092;2023-07-29T08:21:12;95990.81;;;20.10;84.76
16094;BME280;8151;47.824;12.092;2023-07-29T08:23:40;95982.41;;;20.18;84.40
16094;BME280;8151;47.824;12.092;2023-07-29T08:26:09;95987.84;;;20.23;84.10
16094;BME280;8151;47.824;12.092;2023-07-29T08:28:39;95973.97;;;20.26;83.84
16094;BME280;8151;47.824;12.092;2023-07-29T08:31:08;95989.34;;;20.31;83.74
16094;BME280;8151;47.824;12.092;2023-07-29T08:33:36;95978.72;;;20.36;83.62
16094;BME280;8151;47.824;12.092;2023-07-29T08:36:05;95976.84;;;20.37;83.61
16094;BME280;8151;47.824;12.092;2023-07-29T08:38:33;95970.41;;;20.38;83.50
16094;BME280;8151;47.824;12.092;2023-07-29T08:41:10;95990.28;;;20.37;83.32
16094;BME280;8151;47.824;12.092;2023-07-29T08:43:46;95965.50;;;20.35;83.24
16094;BME280;8151;47.824;12.092;2023-07-29T08:46:18;95963.97;;;20.39;83.22
16094;BME280;8151;47.824;12.092;2023-07-29T08:48:47;95953.34;;;20.44;82.89
16094;BME280;8151;47.824;12.092;2023-07-29T08:51:17;95954.94;;;20.45;82.79
16094;BME280;8151;47.824;12.092;2023-07-29T08:53:48;95969.78;;;20.48;82.56
16094;BME280;8151;47.824;12.092;2023-07-29T08:56:16;95965.81;;;20.50;82.42
16094;BME280;8151;47.824;12.092;2023-07-29T08:58:46;95981.34;;;20.48;82.41
16094;BME280;8151;47.824;12.092;2023-07-29T09:01:15;95973.19;;;20.43;82.31
16094;BME280;8151;47.824;12.092;2023-07-29T09:03:44;95969.59;;;20.37;82.35
16094;BME280;8151;47.824;12.092;2023-07-29T09:06:14;95979.53;;;20.37;82.23
16094;BME280;8151;47.824;12.092;2023-07-29T09:08:43;95977.91;;;20.36;82.19
16094;BME280;8151;47.824;12.092;2023-07-29T09:11:13;96006.38;;;20.37;81.99
16094;BME280;8151;47.824;12.092;2023-07-29T09:13:44;95996.22;;;20.39;82.03
16094;BME280;8151;47.824;12.092;2023-07-29T09:16:14;95983.34;;;20.41;81.79
16094;BME280;8151;47.824;12.092;2023-07-29T09:18:52;95988.50;;;20.42;81.86
16094;BME280;8151;47.824;12.092;2023-07-29T09:21:23;95967.91;;;20.48;81.75
16094;BME280;8151;47.824;12.092;2023-07-29T09:23:52;95971.50;;;20.54;81.91
16094;BME280;8151;47.824;12.092;2023-07-29T09:26:22;95971.63;;;20.59;81.97
16094;BME280;8151;47.824;12.092;2023-07-29T09:28:54;95973.38;;;20.65;81.72
16094;BME280;8151;47.824;12.092;2023-07-29T09:31:26;95945.75;;;20.70;81.76
16094;BME280;8151;47.824;12.092;2023-07-29T09:33:58;95949.69;;;20.79;81.49
16094;BME280;8151;47.824;12.092;2023-07-29T09:36:27;95952.69;;;20.82;81.32
16094;BME280;8151;47.824;12.092;2023-07-29T09:38:58;95961.34;;;20.84;81.36
16094;BME280;8151;47.824;12.092;2023-07-29T09:41:28;95955.72;;;20.86;81.31
16094;BME280;8151;47.824;12.092;2023-07-29T09:43:59;95961.16;;;20.91;81.08
16094;BME280;8151;47.824;12.092;2023-07-29T09:46:34;95962.56;;;20.94;81.05
16094;BME280;8151;47.824;12.092;2023-07-29T09:49:05;95957.25;;;20.99;80.85
16094;BME280;8151;47.824;12.092;2023-07-29T09:51:37;95954.41;;;21.06;80.87
16094;BME280;8151;47.824;12.092;2023-07-29T09:54:06;95964.19;;;21.12;80.55
16094;BME280;8151;47.824;12.092;2023-07-29T09:56:41;95961.56;;;21.17;80.37
16094;BME280;8151;47.824;12.092;2023-07-29T09:59:12;95964.59;;;21.20;80.36
16094;BME280;8151;47.824;12.092;2023-07-29T10:01:42;95953.34;;;21.23;80.33
16094;BME280;8151;47.824;12.092;2023-07-29T10:04:10;95954.25;;;21.29;80.03
16094;BME280;8151;47.824;12.092;2023-07-29T10:06:41;95952.03;;;21.43;79.92
16094;BME280;8151;47.824;12.092;2023-07-29T10:09:11;95947.38;;;21.55;79.50
16094;BME280;8151;47.824;12.092;2023-07-29T10:11:41;95944.06;;;21.70;79.36
16094;BME280;8151;47.824;12.092;2023-07-29T10:14:10;95946.44;;;21.89;78.86
16094;BME280;8151;47.824;12.092;2023-07-29T10:16:40;95934.81;;;22.05;78.41
16094;BME280;8151;47.824;12.092;2023-07-29T10:19:10;95934.38;;;22.13;77.96
16094;BME280;8151;47.824;12.092;2023-07-29T10:21:41;95944.69;;;22.21;77.60
16094;BME280;8151;47.824;12.092;2023-07-29T10:24:15;95938.59;;;22.26;77.78
16094;BME280;8151;47.824;12.092;2023-07-29T10:26:49;95938.91;;;22.30;77.68
16094;BME280;8151;47.824;12.092;2023-07-29T10:29:19;95931.63;;;22.30;77.44
16094;BME280;8151;47.824;12.092;2023-07-29T10:31:48;95938.06;;;22.29;77.45
16094;BME280;8151;47.824;12.092;2023-07-29T10:34:22;95932.13;;;22.27;77.14
16094;BME280;8151;47.824;12.092;2023-07-29T10:36:51;95936.72;;;22.27;77.37
16094;BME280;8151;47.824;12.092;2023-07-29T10:39:20;95935.69;;;22.33;77.43
16094;BME280;8151;47.824;12.092;2023-07-29T10:41:55;95929.59;;;22.42;77.20
16094;BME280;8151;47.824;12.092;2023-07-29T10:44:46;95914.91;;;22.55;76.55
16094;BME280;8151;47.824;12.092;2023-07-29T10:47:18;95927.16;;;22.68;76.47
16094;BME280;8151;47.824;12.092;2023-07-29T10:49:50;95920.56;;;22.86;76.24
16094;BME280;8151;47.824;12.092;2023-07-29T10:52:32;95920.19;;;23.05;75.95
16094;BME280;8151;47.824;12.092;2023-07-29T10:55:23;95922.50;;;23.23;75.83
16094;BME280;8151;47.824;12.092;2023-07-29T10:57:52;95923.94;;;23.41;75.45
16094;BME280;8151;47.824;12.092;2023-07-29T11:00:20;95923.25;;;23.61;75.19
16094;BME280;8151;47.824;12.092;2023-07-29T11:02:59;95917.69;;;23.78;74.30
16094;BME280;8151;47.824;12.092;2023-07-29T11:05:49;95913.16;;;23.94;74.57
16094;BME280;8151;47.824;12.092;2023-07-29T11:08:20;95906.75;;;24.10;74.13
16094;BME280;8151;47.824;12.092;2023-07-29T11:11:01;95902.47;;;24.20;73.02
16094;BME280;8151;47.824;12.092;2023-07-29T11:13:31;95912.22;;;24.26;72.62
16094;BME280;8151;47.824;12.092;2023-07-29T11:16:00;95902.47;;;24.30;72.56
16094;BME280;8151;47.824;12.092;2023-07-29T11:18:30;95902.75;;;24.33;73.14
16094;BME280;8151;47.824;12.092;2023-07-29T11:21:01;95897.09;;;24.40;72.63
16094;BME280;8151;47.824;12.092;2023-07-29T11:23:31;95899.56;;;24.52;72.06
16094;BME280;8151;47.824;12.092;2023-07-29T11:26:01;95900.94;;;24.60;71.11
16094;BME280;8151;47.824;12.092;2023-07-29T11:28:30;95893.91;;;24.69;70.77
16094;BME280;8151;47.824;12.092;2023-07-29T11:31:04;95884.72;;;24.80;70.71
16094;BME280;8151;47.824;12.092;2023-07-29T11:33:33;95895.56;;;24.95;69.85
16094;BME280;8151;47.824;12.092;2023-07-29T11:36:03;95887.13;;;25.12;69.39
16094;BME280;8151;47.824;12.092;2023-07-29T11:38:32;95888.78;;;25.24;69.04
16094;BME280;8151;47.824;12.092;2023-07-29T11:41:04;95887.41;;;25.37;68.57
16094;BME280;8151;47.824;12.092;2023-07-29T11:43:35;95886.88;;;25.40;67.86
16094;BME280;8151;47.824;12.092;2023-07-29T11:46:04;95892.28;;;25.40;67.87
16094;BME280;8151;47.824;12.092;2023-07-29T11:48:33;95897.13;;;25.38;68.14
16094;BME280;8151;47.824;12.092;2023-07-29T11:51:03;95886.03;;;25.39;68.32
16094;BME280;8151;47.824;12.092;2023-07-29T11:53:31;95890.63;;;25.49;68.22
16094;BME280;8151;47.824;12.092;2023-07-29T11:56:00;95890.31;;;25.61;68.76
16094;BME280;8151;47.824;12.092;2023-07-29T11:58:28;95881.84;;;25.78;68.45
16094;BME280;8151;47.824;12.092;2023-07-29T12:00:57;95887.75;;;25.90;68.08
16094;BME280;8151;47.824;12.092;2023-07-29T12:03:25;95884.81;;;25.86;67.72
16094;BME280;8151;47.824;12.092;2023-07-29T12:05:54;95889.13;;;25.87;67.34
16094;BME280;8151;47.824;12.092;2023-07-29T12:08:25;95868.28;;;25.93;67.21
16094;BME280;8151;47.824;12.092;2023-07-29T12:10:54;95872.31;;;26.01;66.90
16094;BME280;8151;47.824;12.092;2023-07-29T12:13:24;95863.06;;;26.07;66.90
16094;BME280;8151;47.824;12.092;2023-07-29T12:16:00;95866.53;;;26.18;66.36
16094;BME280;8151;47.824;12.092;2023-07-29T12:18:30;95863.75;;;26.28;65.66
16094;BME280;8151;47.824;12.092;2023-07-29T12:20:59;95859.03;;;26.44;65.53
16094;BME280;8151;47.824;12.092;2023-07-29T12:23:31;95851.03;;;26.68;64.17
16094;BME280;8151;47.824;12.092;2023-07-29T12:26:00;95856.13;;;26.75;63.74
16094;BME280;8151;47.824;12.092;2023-07-29T12:28:29;95854.72;;;26.77;63.46
16094;BME280;8151;47.824;12.092;2023-07-29T12:30:58;95843.88;;;26.77;62.75
16094;BME280;8151;47.824;12.092;2023-07-29T12:33:30;95845.03;;;26.71;62.54
16094;BME280;8151;47.824;12.092;2023-07-29T12:35:58;95843.47;;;26.60;62.48
16094;BME280;8151;47.824;12.092;2023-07-29T12:38:27;95834.06;;;26.47;62.64
16094;BME280;8151;47.824;12.092;2023-07-29T12:40:58;95834.31;;;26.50;62.31
16094;BME280;8151;47.824;12.092;2023-07-29T12:43:36;95832.38;;;26.56;61.93
16094;BME280;8151;47.824;12.092;2023-07-29T12:46:05;95831.00;;;26.59;62.29
16094;BME280;8151;47.824;12.092;2023-07-29T12:48:33;95818.41;;;26.73;62.26
16094;BME280;8151;47.824;12.092;2023-07-29T12:51:02;95820.69;;;26.90;62.23
16094;BME280;8151;47.824;12.092;2023-07-29T12:53:30;95816.84;;;26.96;61.69
16094;BME280;8151;47.824;12.092;2023-07-29T12:56:00;95809.47;;;27.02;61.36
16094;BME280;8151;47.824;12.092;2023-07-29T12:58:29;95804.66;;;27.18;61.43
16094;BME280;8151;47.824;12.092;2023-07-29T13:00:59;95805.81;;;27.41;60.67
16094;BME280;8151;47.824;12.092;2023-07-29T13:03:27;95801.88;;;27.52;59.86
16094;BME280;8151;47.824;12.092;2023-07-29T13:05:56;95792.13;;;27.51;59.48
16094;BME280;8151;47.824;12.092;2023-07-29T13:08:25;95792.69;;;27.48;59.79
16094;BME280;8151;47.824;12.092;2023-07-29T13:10:53;95789.75;;;27.44;59.36
16094;BME280;8151;47.824;12.092;2023-07-29T13:13:23;95791.00;;;27.52;59.54